sensor_id;sensor_type;location;lat;lon;timestamp;P1;durP1;ratioP1;P2;durP2;ratioP2
25946;SDS011;13745;51.470;9.894;2023-04-24T00:00:11;0.68;;;0.50;;
25946;SDS011;13745;51.470;9.894;2023-04-24T00:02:59;2.03;;;0.50;;
25946;SDS011;13745;51.470;9.894;2023-04-24T00:05:45;1.67;;;0.40;;
25946;SDS011;13745;51.470;9.894;2023-04-24T00:08:31;1.33;;;0.60;;
25946;SDS011;13745;51.470;9.894;2023-04-24T00:11:16;0.90;;;0.60;;
25946;SDS011;13745;51.470;9.894;2023-04-24T00:14:01;1.13;;;0.60;;
25946;SDS011;13745;51.470;9.894;2023-04-24T00:16:46;1.75;;;0.50;;
25946;SDS011;13745;51.470;9.894;2023-04-24T00:19:31;1.60;;;0.50;;
25946;SDS011;13745;51.470;9.894;2023-04-24T00:22:18;1.90;;;0.50;;
25946;SDS011;13745;51.470;9.894;2023-04-24T00:25:05;1.55;;;0.50;;
25946;SDS011;13745;51.470;9.894;2023-04-24T00:27:50;2.60;;;0.47;;
25946;SDS011;13745;51.470;9.894;2023-04-24T00:30:35;1.25;;;0.65;;
25946;SDS011;13745;51.470;9.894;2023-04-24T00:33:20;1.15;;;0.35;;
25946;SDS011;13745;51.470;9.894;2023-04-24T00:36:05;0.30;;;0.30;;
25946;SDS011;13745;51.470;9.894;2023-04-24T00:38:52;0.95;;;0.52;;
25946;SDS011;13745;51.470;9.894;2023-04-24T00:41:37;0.22;;;0.22;;
25946;SDS011;13745;51.470;9.894;2023-04-24T00:44:22;4.78;;;0.60;;
25946;SDS011;13745;51.470;9.894;2023-04-24T00:47:07;0.68;;;0.40;;
25946;SDS011;13745;51.470;9.894;2023-04-24T00:49:53;0.77;;;0.35;;
25946;SDS011;13745;51.470;9.894;2023-04-24T00:52:38;0.50;;;0.30;;
25946;SDS011;13745;51.470;9.894;2023-04-24T00:55:25;0.50;;;0.40;;
25946;SDS011;13745;51.470;9.894;2023-04-24T00:58:10;0.85;;;0.40;;
25946;SDS011;13745;51.470;9.894;2023-04-24T01:00:56;1.17;;;0.95;;
25946;SDS011;13745;51.470;9.894;2023-04-24T01:03:41;0.30;;;0.20;;
25946;SDS011;13745;51.470;9.894;2023-04-24T01:06:28;0.88;;;0.35;;
25946;SDS011;13745;51.470;9.894;2023-04-24T01:09:15;0.63;;;0.50;;
25946;SDS011;13745;51.470;9.894;2023-04-24T01:12:02;0.52;;;0.40;;
25946;SDS011;13745;51.470;9.894;2023-04-24T01:14:48;0.65;;;0.30;;
25946;SDS011;13745;51.470;9.894;2023-04-24T01:17:33;1.13;;;0.40;;
25946;SDS011;13745;51.470;9.894;2023-04-24T01:20:19;2.00;;;0.82;;
25946;SDS011;13745;51.470;9.894;2023-04-24T01:23:07;0.73;;;0.57;;
25946;SDS011;13745;51.470;9.894;2023-04-24T01:25:52;0.50;;;0.30;;
25946;SDS011;13745;51.470;9.894;2023-04-24T01:28:37;0.80;;;0.47;;
25946;SDS011;13745;51.470;9.894;2023-04-24T01:31:23;3.17;;;0.35;;
25946;SDS011;13745;51.470;9.894;2023-04-24T01:34:08;0.40;;;0.40;;
25946;SDS011;13745;51.470;9.894;2023-04-24T01:36:53;0.35;;;0.30;;
25946;SDS011;13745;51.470;9.894;2023-04-24T01:39:41;1.42;;;0.52;;
25946;SDS011;13745;51.470;9.894;2023-04-24T01:42:26;3.70;;;0.60;;
25946;SDS011;13745;51.470;9.894;2023-04-24T01:45:11;1.50;;;0.50;;
25946;SDS011;13745;51.470;9.894;2023-04-24T01:47:57;0.47;;;0.32;;
25946;SDS011;13745;51.470;9.894;2023-04-24T01:50:43;2.40;;;0.35;;
25946;SDS011;13745;51.470;9.894;2023-04-24T01:53:29;1.25;;;0.47;;
25946;SDS011;13745;51.470;9.894;2023-04-24T01:56:16;1.88;;;0.43;;
25946;SDS011;13745;51.470;9.894;2023-04-24T01:59:01;1.25;;;0.40;;
25946;SDS011;13745;51.470;9.894;2023-04-24T02:01:47;1.00;;;0.30;;
25946;SDS011;13745;51.470;9.894;2023-04-24T02:04:34;0.38;;;0.30;;
25946;SDS011;13745;51.470;9.894;2023-04-24T02:07:19;0.60;;;0.40;;
25946;SDS011;13745;51.470;9.894;2023-04-24T02:10:05;2.40;;;0.28;;
25946;SDS011;13745;51.470;9.894;2023-04-24T02:12:52;0.50;;;0.20;;
25946;SDS011;13745;51.470;9.894;2023-04-24T02:15:40;1.85;;;0.28;;
25946;SDS011;13745;51.470;9.894;2023-04-24T02:18:25;2.80;;;0.40;;
25946;SDS011;13745;51.470;9.894;2023-04-24T02:21:10;0.68;;;0.52;;
25946;SDS011;13745;51.470;9.894;2023-04-24T02:23:55;1.05;;;0.50;;
25946;SDS011;13745;51.470;9.894;2023-04-24T02:26:41;0.30;;;0.22;;
25946;SDS011;13745;51.470;9.894;2023-04-24T02:29:27;1.73;;;0.40;;
25946;SDS011;13745;51.470;9.894;2023-04-24T02:32:12;0.75;;;0.40;;
25946;SDS011;13745;51.470;9.894;2023-04-24T02:35:00;2.50;;;0.40;;
25946;SDS011;13745;51.470;9.894;2023-04-24T02:37:46;0.80;;;0.30;;
25946;SDS011;13745;51.470;9.894;2023-04-24T02:40:31;3.00;;;0.60;;
25946;SDS011;13745;51.470;9.894;2023-04-24T02:43:16;1.42;;;0.70;;
25946;SDS011;13745;51.470;9.894;2023-04-24T02:46:03;0.50;;;0.50;;
25946;SDS011;13745;51.470;9.894;2023-04-24T02:48:48;1.30;;;0.43;;
25946;SDS011;13745;51.470;9.894;2023-04-24T02:51:33;2.00;;;0.40;;
25946;SDS011;13745;51.470;9.894;2023-04-24T02:54:18;0.98;;;0.50;;
25946;SDS011;13745;51.470;9.894;2023-04-24T02:57:03;0.93;;;0.50;;
25946;SDS011;13745;51.470;9.894;2023-04-24T02:59:48;4.10;;;0.70;;
25946;SDS011;13745;51.470;9.894;2023-04-24T03:02:34;0.88;;;0.43;;
25946;SDS011;13745;51.470;9.894;2023-04-24T03:05:19;1.63;;;0.50;;
25946;SDS011;13745;51.470;9.894;2023-04-24T03:08:04;0.98;;;0.50;;
25946;SDS011;13745;51.470;9.894;2023-04-24T03:10:50;0.93;;;0.32;;
25946;SDS011;13745;51.470;9.894;2023-04-24T03:13:35;0.52;;;0.40;;
25946;SDS011;13745;51.470;9.894;2023-04-24T03:16:19;0.60;;;0.50;;
25946;SDS011;13745;51.470;9.894;2023-04-24T03:19:06;1.75;;;0.50;;
25946;SDS011;13745;51.470;9.894;2023-04-24T03:21:57;6.60;;;2.15;;
25946;SDS011;13745;51.470;9.894;2023-04-24T03:24:42;3.30;;;1.05;;
25946;SDS011;13745;51.470;9.894;2023-04-24T03:27:28;0.43;;;0.43;;
25946;SDS011;13745;51.470;9.894;2023-04-24T03:30:18;1.35;;;0.70;;
25946;SDS011;13745;51.470;9.894;2023-04-24T03:33:09;3.10;;;0.73;;
25946;SDS011;13745;51.470;9.894;2023-04-24T03:36:01;2.13;;;0.65;;
25946;SDS011;13745;51.470;9.894;2023-04-24T03:38:54;1.40;;;0.70;;
25946;SDS011;13745;51.470;9.894;2023-04-24T03:41:44;0.63;;;0.63;;
25946;SDS011;13745;51.470;9.894;2023-04-24T03:44:36;0.80;;;0.70;;
25946;SDS011;13745;51.470;9.894;2023-04-24T03:47:21;1.90;;;1.00;;
25946;SDS011;13745;51.470;9.894;2023-04-24T03:50:07;1.00;;;0.70;;
25946;SDS011;13745;51.470;9.894;2023-04-24T03:52:55;0.85;;;0.77;;
25946;SDS011;13745;51.470;9.894;2023-04-24T03:55:51;1.58;;;0.80;;
25946;SDS011;13745;51.470;9.894;2023-04-24T03:58:37;1.92;;;0.90;;
25946;SDS011;13745;51.470;9.894;2023-04-24T04:01:22;2.78;;;0.80;;
25946;SDS011;13745;51.470;9.894;2023-04-24T04:04:31;3.08;;;0.75;;
25946;SDS011;13745;51.470;9.894;2023-04-24T04:07:17;1.42;;;1.00;;
25946;SDS011;13745;51.470;9.894;2023-04-24T04:10:04;2.67;;;0.70;;
25946;SDS011;13745;51.470;9.894;2023-04-24T04:12:50;1.25;;;0.93;;
25946;SDS011;13745;51.470;9.894;2023-04-24T04:15:36;2.78;;;1.10;;
25946;SDS011;13745;51.470;9.894;2023-04-24T04:18:21;4.22;;;0.95;;
25946;SDS011;13745;51.470;9.894;2023-04-24T04:21:07;1.20;;;0.80;;
25946;SDS011;13745;51.470;9.894;2023-04-24T04:23:52;1.10;;;0.85;;
25946;SDS011;13745;51.470;9.894;2023-04-24T04:26:45;5.85;;;0.98;;
25946;SDS011;13745;51.470;9.894;2023-04-24T04:29:37;0.98;;;0.80;;
25946;SDS011;13745;51.470;9.894;2023-04-24T04:32:25;1.92;;;1.02;;
25946;SDS011;13745;51.470;9.894;2023-04-24T04:35:10;1.50;;;0.80;;
25946;SDS011;13745;51.470;9.894;2023-04-24T04:37:55;1.40;;;0.90;;
25946;SDS011;13745;51.470;9.894;2023-04-24T04:41:03;1.23;;;0.70;;
25946;SDS011;13745;51.470;9.894;2023-04-24T04:43:51;0.70;;;0.70;;
25946;SDS011;13745;51.470;9.894;2023-04-24T04:46:37;1.50;;;0.75;;
25946;SDS011;13745;51.470;9.894;2023-04-24T04:49:33;2.33;;;0.70;;
25946;SDS011;13745;51.470;9.894;2023-04-24T04:52:20;1.75;;;1.02;;
25946;SDS011;13745;51.470;9.894;2023-04-24T04:55:11;10.05;;;0.77;;
25946;SDS011;13745;51.470;9.894;2023-04-24T04:58:16;1.33;;;0.57;;
25946;SDS011;13745;51.470;9.894;2023-04-24T05:01:04;0.80;;;0.57;;
25946;SDS011;13745;51.470;9.894;2023-04-24T05:03:56;1.25;;;0.65;;
25946;SDS011;13745;51.470;9.894;2023-04-24T05:06:41;1.10;;;0.45;;
25946;SDS011;13745;51.470;9.894;2023-04-24T05:09:27;2.85;;;0.50;;
25946;SDS011;13745;51.470;9.894;2023-04-24T05:12:18;4.40;;;0.45;;
25946;SDS011;13745;51.470;9.894;2023-04-24T05:15:09;1.05;;;0.45;;
25946;SDS011;13745;51.470;9.894;2023-04-24T05:17:56;0.88;;;0.50;;
25946;SDS011;13745;51.470;9.894;2023-04-24T05:20:42;2.35;;;0.55;;
25946;SDS011;13745;51.470;9.894;2023-04-24T05:23:28;0.60;;;0.40;;
25946;SDS011;13745;51.470;9.894;2023-04-24T05:26:14;0.68;;;0.47;;
25946;SDS011;13745;51.470;9.894;2023-04-24T05:28:59;0.68;;;0.22;;
25946;SDS011;13745;51.470;9.894;2023-04-24T05:31:44;0.43;;;0.43;;
25946;SDS011;13745;51.470;9.894;2023-04-24T05:34:31;5.32;;;0.50;;
25946;SDS011;13745;51.470;9.894;2023-04-24T05:37:16;1.75;;;0.47;;
25946;SDS011;13745;51.470;9.894;2023-04-24T05:40:01;0.60;;;0.40;;
25946;SDS011;13745;51.470;9.894;2023-04-24T05:42:49;3.08;;;0.40;;
25946;SDS011;13745;51.470;9.894;2023-04-24T05:45:34;0.60;;;0.50;;
25946;SDS011;13745;51.470;9.894;2023-04-24T05:48:19;1.33;;;0.50;;
25946;SDS011;13745;51.470;9.894;2023-04-24T05:51:06;0.80;;;0.68;;
25946;SDS011;13745;51.470;9.894;2023-04-24T05:53:52;1.73;;;0.57;;
25946;SDS011;13745;51.470;9.894;2023-04-24T05:56:37;2.15;;;0.50;;
25946;SDS011;13745;51.470;9.894;2023-04-24T05:59:24;2.08;;;0.60;;
25946;SDS011;13745;51.470;9.894;2023-04-24T06:02:10;0.40;;;0.40;;
25946;SDS011;13745;51.470;9.894;2023-04-24T06:04:55;1.65;;;0.70;;
25946;SDS011;13745;51.470;9.894;2023-04-24T06:07:43;0.60;;;0.60;;
25946;SDS011;13745;51.470;9.894;2023-04-24T06:10:29;0.80;;;0.60;;
25946;SDS011;13745;51.470;9.894;2023-04-24T06:13:14;0.95;;;0.38;;
25946;SDS011;13745;51.470;9.894;2023-04-24T06:16:12;0.60;;;0.40;;
25946;SDS011;13745;51.470;9.894;2023-04-24T06:19:02;1.05;;;0.60;;
25946;SDS011;13745;51.470;9.894;2023-04-24T06:21:47;1.48;;;0.55;;
25946;SDS011;13745;51.470;9.894;2023-04-24T06:24:34;1.08;;;0.80;;
25946;SDS011;13745;51.470;9.894;2023-04-24T06:27:20;0.90;;;0.73;;
25946;SDS011;13745;51.470;9.894;2023-04-24T06:30:06;4.53;;;1.20;;
25946;SDS011;13745;51.470;9.894;2023-04-24T06:32:52;1.90;;;1.20;;
25946;SDS011;13745;51.470;9.894;2023-04-24T06:35:38;1.00;;;0.77;;
25946;SDS011;13745;51.470;9.894;2023-04-24T06:38:23;2.28;;;1.10;;
25946;SDS011;13745;51.470;9.894;2023-04-24T06:41:10;1.73;;;1.35;;
25946;SDS011;13745;51.470;9.894;2023-04-24T06:43:56;1.85;;;1.30;;
25946;SDS011;13745;51.470;9.894;2023-04-24T06:46:41;1.90;;;1.40;;
25946;SDS011;13745;51.470;9.894;2023-04-24T06:49:27;2.45;;;1.30;;
25946;SDS011;13745;51.470;9.894;2023-04-24T06:52:12;2.70;;;1.20;;
25946;SDS011;13745;51.470;9.894;2023-04-24T06:54:59;1.70;;;1.20;;
25946;SDS011;13745;51.470;9.894;2023-04-24T06:57:46;2.20;;;1.45;;
25946;SDS011;13745;51.470;9.894;2023-04-24T07:00:31;1.85;;;1.40;;
25946;SDS011;13745;51.470;9.894;2023-04-24T07:03:17;1.40;;;1.30;;
25946;SDS011;13745;51.470;9.894;2023-04-24T07:06:02;4.60;;;1.73;;
25946;SDS011;13745;51.470;9.894;2023-04-24T07:08:48;1.73;;;1.48;;
25946;SDS011;13745;51.470;9.894;2023-04-24T07:11:33;2.97;;;1.95;;
25946;SDS011;13745;51.470;9.894;2023-04-24T07:14:21;2.15;;;1.95;;
25946;SDS011;13745;51.470;9.894;2023-04-24T07:17:07;2.55;;;1.55;;
25946;SDS011;13745;51.470;9.894;2023-04-24T07:19:52;2.80;;;2.10;;
25946;SDS011;13745;51.470;9.894;2023-04-24T07:22:37;3.25;;;1.70;;
25946;SDS011;13745;51.470;9.894;2023-04-24T07:25:22;2.15;;;1.83;;
25946;SDS011;13745;51.470;9.894;2023-04-24T07:28:07;2.63;;;1.75;;
25946;SDS011;13745;51.470;9.894;2023-04-24T07:30:54;1.50;;;1.40;;
25946;SDS011;13745;51.470;9.894;2023-04-24T07:33:39;2.83;;;1.52;;
25946;SDS011;13745;51.470;9.894;2023-04-24T07:36:24;2.33;;;2.13;;
25946;SDS011;13745;51.470;9.894;2023-04-24T07:39:10;3.60;;;2.00;;
25946;SDS011;13745;51.470;9.894;2023-04-24T07:41:54;2.67;;;1.80;;
25946;SDS011;13745;51.470;9.894;2023-04-24T07:44:39;3.08;;;1.80;;
25946;SDS011;13745;51.470;9.894;2023-04-24T07:47:25;2.22;;;1.95;;
25946;SDS011;13745;51.470;9.894;2023-04-24T07:50:11;2.17;;;1.95;;
25946;SDS011;13745;51.470;9.894;2023-04-24T07:52:56;2.67;;;1.92;;
25946;SDS011;13745;51.470;9.894;2023-04-24T07:55:41;2.55;;;1.90;;
25946;SDS011;13745;51.470;9.894;2023-04-24T07:58:26;4.38;;;1.73;;
25946;SDS011;13745;51.470;9.894;2023-04-24T08:01:11;1.52;;;1.42;;
25946;SDS011;13745;51.470;9.894;2023-04-24T08:03:58;2.70;;;1.50;;
25946;SDS011;13745;51.470;9.894;2023-04-24T08:06:43;1.65;;;1.55;;
25946;SDS011;13745;51.470;9.894;2023-04-24T08:09:28;2.63;;;1.63;;
25946;SDS011;13745;51.470;9.894;2023-04-24T08:12:13;1.63;;;1.52;;
25946;SDS011;13745;51.470;9.894;2023-04-24T08:14:59;3.53;;;1.83;;
25946;SDS011;13745;51.470;9.894;2023-04-24T08:17:44;2.80;;;1.80;;
25946;SDS011;13745;51.470;9.894;2023-04-24T08:20:30;2.08;;;1.83;;
25946;SDS011;13745;51.470;9.894;2023-04-24T08:23:15;3.17;;;2.28;;
25946;SDS011;13745;51.470;9.894;2023-04-24T08:26:00;2.55;;;2.33;;
25946;SDS011;13745;51.470;9.894;2023-04-24T08:28:46;2.90;;;2.22;;
25946;SDS011;13745;51.470;9.894;2023-04-24T08:31:31;2.95;;;2.53;;
25946;SDS011;13745;51.470;9.894;2023-04-24T08:34:16;2.47;;;2.17;;
25946;SDS011;13745;51.470;9.894;2023-04-24T08:37:03;2.47;;;1.88;;
25946;SDS011;13745;51.470;9.894;2023-04-24T08:39:49;1.90;;;1.73;;
25946;SDS011;13745;51.470;9.894;2023-04-24T08:42:34;3.38;;;1.88;;
25946;SDS011;13745;51.470;9.894;2023-04-24T08:45:21;2.72;;;1.77;;
25946;SDS011;13745;51.470;9.894;2023-04-24T08:48:07;2.10;;;1.85;;
25946;SDS011;13745;51.470;9.894;2023-04-24T08:50:54;2.50;;;2.30;;
25946;SDS011;13745;51.470;9.894;2023-04-24T08:53:42;3.13;;;1.92;;
25946;SDS011;13745;51.470;9.894;2023-04-24T08:56:28;5.38;;;2.33;;
25946;SDS011;13745;51.470;9.894;2023-04-24T08:59:15;2.70;;;2.20;;
25946;SDS011;13745;51.470;9.894;2023-04-24T09:02:00;3.13;;;2.17;;
25946;SDS011;13745;51.470;9.894;2023-04-24T09:04:48;3.22;;;2.70;;
25946;SDS011;13745;51.470;9.894;2023-04-24T09:07:34;2.42;;;2.22;;
25946;SDS011;13745;51.470;9.894;2023-04-24T09:10:23;2.75;;;2.20;;
25946;SDS011;13745;51.470;9.894;2023-04-24T09:13:09;2.20;;;1.90;;
25946;SDS011;13745;51.470;9.894;2023-04-24T09:15:54;3.40;;;2.08;;
25946;SDS011;13745;51.470;9.894;2023-04-24T09:18:41;4.30;;;2.15;;
25946;SDS011;13745;51.470;9.894;2023-04-24T09:21:27;2.53;;;2.13;;
25946;SDS011;13745;51.470;9.894;2023-04-24T09:24:17;2.75;;;2.17;;
25946;SDS011;13745;51.470;9.894;2023-04-24T09:27:07;7.90;;;2.45;;
25946;SDS011;13745;51.470;9.894;2023-04-24T09:29:55;2.33;;;2.13;;
25946;SDS011;13745;51.470;9.894;2023-04-24T09:32:41;4.57;;;2.70;;
25946;SDS011;13745;51.470;9.894;2023-04-24T09:35:26;3.60;;;2.33;;
25946;SDS011;13745;51.470;9.894;2023-04-24T09:38:11;2.75;;;2.22;;
25946;SDS011;13745;51.470;9.894;2023-04-24T09:40:58;3.25;;;2.10;;
25946;SDS011;13745;51.470;9.894;2023-04-24T09:43:46;2.30;;;2.10;;
25946;SDS011;13745;51.470;9.894;2023-04-24T09:46:31;2.72;;;2.47;;
25946;SDS011;13745;51.470;9.894;2023-04-24T09:49:21;4.93;;;2.72;;
25946;SDS011;13745;51.470;9.894;2023-04-24T09:52:10;3.25;;;2.08;;
25946;SDS011;13745;51.470;9.894;2023-04-24T09:54:55;3.03;;;2.35;;
25946;SDS011;13745;51.470;9.894;2023-04-24T09:57:46;4.45;;;2.42;;
25946;SDS011;13745;51.470;9.894;2023-04-24T10:00:34;4.78;;;2.22;;
25946;SDS011;13745;51.470;9.894;2023-04-24T10:03:19;2.22;;;2.03;;
25946;SDS011;13745;51.470;9.894;2023-04-24T10:06:05;2.00;;;1.80;;
25946;SDS011;13745;51.470;9.894;2023-04-24T10:08:52;2.95;;;1.70;;
25946;SDS011;13745;51.470;9.894;2023-04-24T10:11:37;3.50;;;2.75;;
25946;SDS011;13745;51.470;9.894;2023-04-24T10:14:26;3.83;;;1.95;;
25946;SDS011;13745;51.470;9.894;2023-04-24T10:17:13;4.93;;;2.28;;
25946;SDS011;13745;51.470;9.894;2023-04-24T10:19:59;4.55;;;2.20;;
25946;SDS011;13745;51.470;9.894;2023-04-24T10:22:45;3.67;;;2.13;;
25946;SDS011;13745;51.470;9.894;2023-04-24T10:25:35;2.28;;;1.70;;
25946;SDS011;13745;51.470;9.894;2023-04-24T10:28:21;3.60;;;2.13;;
25946;SDS011;13745;51.470;9.894;2023-04-24T10:31:08;2.17;;;1.98;;
25946;SDS011;13745;51.470;9.894;2023-04-24T10:33:56;3.42;;;1.88;;
25946;SDS011;13745;51.470;9.894;2023-04-24T10:36:43;3.60;;;2.53;;
25946;SDS011;13745;51.470;9.894;2023-04-24T10:39:33;2.13;;;1.95;;
25946;SDS011;13745;51.470;9.894;2023-04-24T10:42:21;4.78;;;2.15;;
25946;SDS011;13745;51.470;9.894;2023-04-24T10:45:06;1.80;;;1.30;;
25946;SDS011;13745;51.470;9.894;2023-04-24T10:48:01;1.70;;;1.30;;
25946;SDS011;13745;51.470;9.894;2023-04-24T10:50:53;2.90;;;1.55;;
25946;SDS011;13745;51.470;9.894;2023-04-24T10:53:39;1.50;;;1.40;;
25946;SDS011;13745;51.470;9.894;2023-04-24T10:56:24;1.10;;;1.00;;
25946;SDS011;13745;51.470;9.894;2023-04-24T10:59:11;4.07;;;1.30;;
25946;SDS011;13745;51.470;9.894;2023-04-24T11:02:09;1.13;;;1.00;;
25946;SDS011;13745;51.470;9.894;2023-04-24T11:04:54;1.70;;;1.15;;
25946;SDS011;13745;51.470;9.894;2023-04-24T11:10:58;2.22;;;1.10;;
25946;SDS011;13745;51.470;9.894;2023-04-24T11:14:01;1.17;;;1.08;;
25946;SDS011;13745;51.470;9.894;2023-04-24T11:16:51;1.17;;;1.08;;
25946;SDS011;13745;51.470;9.894;2023-04-24T11:19:37;1.67;;;1.20;;
25946;SDS011;13745;51.470;9.894;2023-04-24T11:22:23;1.90;;;1.30;;
25946;SDS011;13745;51.470;9.894;2023-04-24T11:25:10;1.30;;;1.20;;
25946;SDS011;13745;51.470;9.894;2023-04-24T11:28:02;2.28;;;1.58;;
25946;SDS011;13745;51.470;9.894;2023-04-24T11:30:48;3.78;;;1.48;;
25946;SDS011;13745;51.470;9.894;2023-04-24T11:33:34;3.42;;;1.20;;
25946;SDS011;13745;51.470;9.894;2023-04-24T11:36:20;1.52;;;1.08;;
25946;SDS011;13745;51.470;9.894;2023-04-24T11:39:05;1.20;;;1.10;;
25946;SDS011;13745;51.470;9.894;2023-04-24T11:41:52;1.45;;;1.25;;
25946;SDS011;13745;51.470;9.894;2023-04-24T11:44:38;2.00;;;1.10;;
25946;SDS011;13745;51.470;9.894;2023-04-24T11:47:29;1.00;;;0.90;;
25946;SDS011;13745;51.470;9.894;2023-04-24T11:50:15;0.88;;;0.70;;
25946;SDS011;13745;51.470;9.894;2023-04-24T11:53:01;1.25;;;0.95;;
25946;SDS011;13745;51.470;9.894;2023-04-24T11:55:46;0.88;;;0.88;;
25946;SDS011;13745;51.470;9.894;2023-04-24T11:58:35;0.73;;;0.60;;
25946;SDS011;13745;51.470;9.894;2023-04-24T12:01:20;1.08;;;0.80;;
25946;SDS011;13745;51.470;9.894;2023-04-24T12:04:05;0.60;;;0.60;;
25946;SDS011;13745;51.470;9.894;2023-04-24T12:06:59;2.72;;;0.45;;
25946;SDS011;13745;51.470;9.894;2023-04-24T12:09:45;0.65;;;0.38;;
25946;SDS011;13745;51.470;9.894;2023-04-24T12:12:32;0.50;;;0.50;;
25946;SDS011;13745;51.470;9.894;2023-04-24T12:15:19;0.30;;;0.30;;
25946;SDS011;13745;51.470;9.894;2023-04-24T12:18:05;0.30;;;0.28;;
25946;SDS011;13745;51.470;9.894;2023-04-24T12:20:50;0.10;;;0.10;;
25946;SDS011;13745;51.470;9.894;2023-04-24T12:23:35;0.10;;;0.10;;
25946;SDS011;13745;51.470;9.894;2023-04-24T12:26:20;0.25;;;0.20;;
25946;SDS011;13745;51.470;9.894;2023-04-24T12:29:06;0.20;;;0.20;;
25946;SDS011;13745;51.470;9.894;2023-04-24T12:31:53;2.75;;;0.15;;
25946;SDS011;13745;51.470;9.894;2023-04-24T12:34:38;0.05;;;0.03;;
25946;SDS011;13745;51.470;9.894;2023-04-24T12:37:24;0.00;;;0.00;;
25946;SDS011;13745;51.470;9.894;2023-04-24T12:40:11;0.90;;;0.00;;
25946;SDS011;13745;51.470;9.894;2023-04-24T12:42:58;0.10;;;0.10;;
25946;SDS011;13745;51.470;9.894;2023-04-24T12:45:43;0.10;;;0.10;;
25946;SDS011;13745;51.470;9.894;2023-04-24T12:48:30;0.03;;;0.00;;
25946;SDS011;13745;51.470;9.894;2023-04-24T12:51:15;0.55;;;0.20;;
25946;SDS011;13745;51.470;9.894;2023-04-24T12:54:00;0.10;;;0.10;;
25946;SDS011;13745;51.470;9.894;2023-04-24T12:56:46;2.60;;;0.20;;
25946;SDS011;13745;51.470;9.894;2023-04-24T12:59:31;0.05;;;0.05;;
25946;SDS011;13745;51.470;9.894;2023-04-24T13:02:16;0.10;;;0.10;;
25946;SDS011;13745;51.470;9.894;2023-04-24T13:05:03;0.10;;;0.10;;
25946;SDS011;13745;51.470;9.894;2023-04-24T13:07:49;0.13;;;0.13;;
25946;SDS011;13745;51.470;9.894;2023-04-24T13:10:34;0.20;;;0.10;;
25946;SDS011;13745;51.470;9.894;2023-04-24T13:13:19;0.68;;;0.10;;
25946;SDS011;13745;51.470;9.894;2023-04-24T13:16:04;0.17;;;0.10;;
25946;SDS011;13745;51.470;9.894;2023-04-24T13:18:50;0.28;;;0.10;;
25946;SDS011;13745;51.470;9.894;2023-04-24T13:21:36;0.05;;;0.03;;
25946;SDS011;13745;51.470;9.894;2023-04-24T13:24:21;1.20;;;0.20;;
25946;SDS011;13745;51.470;9.894;2023-04-24T13:27:08;1.35;;;0.17;;
25946;SDS011;13745;51.470;9.894;2023-04-24T13:29:53;0.00;;;0.00;;
25946;SDS011;13745;51.470;9.894;2023-04-24T13:32:38;0.10;;;0.00;;
25946;SDS011;13745;51.470;9.894;2023-04-24T13:35:23;0.13;;;0.10;;
25946;SDS011;13745;51.470;9.894;2023-04-24T13:38:09;0.32;;;0.30;;
25946;SDS011;13745;51.470;9.894;2023-04-24T13:40:55;0.10;;;0.10;;
25946;SDS011;13745;51.470;9.894;2023-04-24T13:43:40;0.40;;;0.10;;
25946;SDS011;13745;51.470;9.894;2023-04-24T13:46:26;0.22;;;0.20;;
25946;SDS011;13745;51.470;9.894;2023-04-24T13:49:11;0.30;;;0.10;;
25946;SDS011;13745;51.470;9.894;2023-04-24T13:51:57;0.10;;;0.10;;
25946;SDS011;13745;51.470;9.894;2023-04-24T13:54:44;0.08;;;0.08;;
25946;SDS011;13745;51.470;9.894;2023-04-24T13:57:29;0.45;;;0.20;;
25946;SDS011;13745;51.470;9.894;2023-04-24T14:00:15;0.20;;;0.17;;
25946;SDS011;13745;51.470;9.894;2023-04-24T14:03:01;0.20;;;0.20;;
25946;SDS011;13745;51.470;9.894;2023-04-24T14:05:46;0.10;;;0.10;;
25946;SDS011;13745;51.470;9.894;2023-04-24T14:08:31;0.20;;;0.20;;
25946;SDS011;13745;51.470;9.894;2023-04-24T14:11:18;2.67;;;0.20;;
25946;SDS011;13745;51.470;9.894;2023-04-24T14:14:04;0.25;;;0.20;;
25946;SDS011;13745;51.470;9.894;2023-04-24T14:16:50;0.20;;;0.20;;
25946;SDS011;13745;51.470;9.894;2023-04-24T14:19:35;0.50;;;0.47;;
25946;SDS011;13745;51.470;9.894;2023-04-24T14:22:21;0.20;;;0.20;;
25946;SDS011;13745;51.470;9.894;2023-04-24T14:25:06;0.40;;;0.40;;
25946;SDS011;13745;51.470;9.894;2023-04-24T14:27:53;1.05;;;0.40;;
25946;SDS011;13745;51.470;9.894;2023-04-24T14:30:38;0.43;;;0.40;;
25946;SDS011;13745;51.470;9.894;2023-04-24T14:33:24;0.57;;;0.52;;
25946;SDS011;13745;51.470;9.894;2023-04-24T14:36:09;0.60;;;0.60;;
25946;SDS011;13745;51.470;9.894;2023-04-24T14:38:55;0.98;;;0.60;;
25946;SDS011;13745;51.470;9.894;2023-04-24T14:41:40;2.75;;;0.60;;
25946;SDS011;13745;51.470;9.894;2023-04-24T14:44:26;0.60;;;0.60;;
25946;SDS011;13745;51.470;9.894;2023-04-24T14:47:12;0.98;;;0.90;;
25946;SDS011;13745;51.470;9.894;2023-04-24T14:49:57;2.35;;;1.30;;
25946;SDS011;13745;51.470;9.894;2023-04-24T14:52:43;2.53;;;1.67;;
25946;SDS011;13745;51.470;9.894;2023-04-24T14:55:28;2.45;;;1.48;;
25946;SDS011;13745;51.470;9.894;2023-04-24T14:58:13;2.40;;;1.83;;
25946;SDS011;13745;51.470;9.894;2023-04-24T15:00:59;2.35;;;1.63;;
25946;SDS011;13745;51.470;9.894;2023-04-24T15:03:45;2.65;;;2.00;;
25946;SDS011;13745;51.470;9.894;2023-04-24T15:06:30;3.10;;;2.22;;
25946;SDS011;13745;51.470;9.894;2023-04-24T15:09:16;2.38;;;2.10;;
25946;SDS011;13745;51.470;9.894;2023-04-24T15:12:01;2.13;;;1.90;;
25946;SDS011;13745;51.470;9.894;2023-04-24T15:14:46;2.28;;;2.05;;
25946;SDS011;13745;51.470;9.894;2023-04-24T15:17:33;2.10;;;1.90;;
25946;SDS011;13745;51.470;9.894;2023-04-24T15:20:18;3.88;;;2.30;;
25946;SDS011;13745;51.470;9.894;2023-04-24T15:23:04;3.15;;;2.22;;
25946;SDS011;13745;51.470;9.894;2023-04-24T15:25:49;4.32;;;3.03;;
25946;SDS011;13745;51.470;9.894;2023-04-24T15:28:34;3.28;;;2.97;;
25946;SDS011;13745;51.470;9.894;2023-04-24T15:31:19;3.28;;;2.97;;
25946;SDS011;13745;51.470;9.894;2023-04-24T15:34:07;4.40;;;3.65;;
25946;SDS011;13745;51.470;9.894;2023-04-24T15:36:52;4.03;;;3.40;;
25946;SDS011;13745;51.470;9.894;2023-04-24T15:39:38;6.10;;;3.70;;
25946;SDS011;13745;51.470;9.894;2023-04-24T15:42:22;7.15;;;3.30;;
25946;SDS011;13745;51.470;9.894;2023-04-24T15:45:08;4.28;;;3.25;;
25946;SDS011;13745;51.470;9.894;2023-04-24T15:47:54;5.57;;;3.35;;
25946;SDS011;13745;51.470;9.894;2023-04-24T15:50:41;8.00;;;3.35;;
25946;SDS011;13745;51.470;9.894;2023-04-24T15:53:26;8.60;;;3.15;;
25946;SDS011;13745;51.470;9.894;2023-04-24T15:56:12;7.93;;;3.85;;
25946;SDS011;13745;51.470;9.894;2023-04-24T15:58:57;4.43;;;3.60;;
25946;SDS011;13745;51.470;9.894;2023-04-24T16:01:43;8.23;;;4.13;;
25946;SDS011;13745;51.470;9.894;2023-04-24T16:04:28;5.78;;;3.85;;
25946;SDS011;13745;51.470;9.894;2023-04-24T16:07:15;5.03;;;3.53;;
25946;SDS011;13745;51.470;9.894;2023-04-24T16:10:01;6.00;;;3.80;;
25946;SDS011;13745;51.470;9.894;2023-04-24T16:12:46;5.65;;;3.63;;
25946;SDS011;13745;51.470;9.894;2023-04-24T16:15:31;3.95;;;3.10;;
25946;SDS011;13745;51.470;9.894;2023-04-24T16:18:17;4.10;;;3.08;;
25946;SDS011;13745;51.470;9.894;2023-04-24T16:21:03;4.55;;;3.08;;
25946;SDS011;13745;51.470;9.894;2023-04-24T16:23:49;5.40;;;3.63;;
25946;SDS011;13745;51.470;9.894;2023-04-24T16:26:34;4.47;;;3.00;;
25946;SDS011;13745;51.470;9.894;2023-04-24T16:29:19;7.15;;;3.08;;
25946;SDS011;13745;51.470;9.894;2023-04-24T16:32:04;5.15;;;2.60;;
25946;SDS011;13745;51.470;9.894;2023-04-24T16:34:50;5.47;;;2.92;;
25946;SDS011;13745;51.470;9.894;2023-04-24T16:37:35;6.07;;;2.70;;
25946;SDS011;13745;51.470;9.894;2023-04-24T16:40:22;5.28;;;2.70;;
25946;SDS011;13745;51.470;9.894;2023-04-24T16:43:08;6.85;;;2.60;;
25946;SDS011;13745;51.470;9.894;2023-04-24T16:45:53;3.97;;;2.83;;